KCMA 221942Z 2220/2318 VRB03KT 5SM BR OVC009
FM222100 23008KT P6SM SCT012
FM230200 VRB03KT P6SM OVC012
FM230800 VRB03KT 5SM -DZ BR BKN008 OVC015
From batch tds/tafs/production/2024/4/22/h20_m00_tafs.cache.xml.gz
Issued (30 days ago)
Forecasts
2220/2221 VRB03KT 5SM OVC900

---
wx_string: BR
fcst_time_to: '2024-04-22T21:00:00Z'
sky_condition:
- sky_cover: OVC
  cloud_base_ft_agl: '900'
wind_speed_kt: '3'
fcst_time_from: '2024-04-22T20:00:00Z'
wind_dir_degrees: VRB
visibility_statute_mi: '5'

FM222100 23008KT 6+SM SCT1200

---
fcst_time_to: '2024-04-23T02:00:00Z'
sky_condition:
- sky_cover: SCT
  cloud_base_ft_agl: '1200'
wind_speed_kt: '8'
fcst_time_from: '2024-04-22T21:00:00Z'
change_indicator: FM
wind_dir_degrees: '230'
visibility_statute_mi: 6+

FM230200 VRB03KT 6+SM OVC1200

---
fcst_time_to: '2024-04-23T08:00:00Z'
sky_condition:
- sky_cover: OVC
  cloud_base_ft_agl: '1200'
wind_speed_kt: '3'
fcst_time_from: '2024-04-23T02:00:00Z'
change_indicator: FM
wind_dir_degrees: VRB
visibility_statute_mi: 6+

FM230800 VRB03KT 5SM BKN800 OVC1500

---
wx_string: "-DZ BR"
fcst_time_to: '2024-04-23T18:00:00Z'
sky_condition:
- - sky_cover: BKN
    cloud_base_ft_agl: '800'
- - sky_cover: OVC
    cloud_base_ft_agl: '1500'
wind_speed_kt: '3'
fcst_time_from: '2024-04-23T08:00:00Z'
change_indicator: FM
wind_dir_degrees: VRB
visibility_statute_mi: '5'

talk